Time;durP1;ratioP1;P1;durP2;ratioP2;P2;SDS_P1;SDS_P2;PMS_P1;PMS_P2;Temp;Humidity;BMP_temperature;BMP_pressure;BME280_temperature;BME280_humidity;BME280_pressure;Samples;Min_cycle;Max_cycle;Signal;HPM_P1;HPM_P2
2023/05/19 00:00:33;;;;;;;6.10;1.80;;;11.00;92.60;;;;;;10510214;28;20230;-73
2023/05/19 00:05:35;;;;;;;6.67;2.20;;;10.90;93.40;;;;;;10520249;28;20214;-73
2023/05/19 00:10:37;;;;;;;7.00;2.07;;;10.90;93.20;;;;;;10494179;28;20219;-73
2023/05/19 00:15:38;;;;;;;7.90;2.07;;;10.90;93.40;;;;;;10527949;28;20219;-73
2023/05/19 00:20:38;;;;;;;7.20;2.13;;;10.80;93.80;;;;;;10511798;28;20230;-73
2023/05/19 00:25:39;;;;;;;4.93;2.00;;;10.80;94.20;;;;;;10500561;28;20229;-73
2023/05/19 00:30:40;;;;;;;5.43;2.00;;;10.70;94.60;;;;;;10519853;28;20226;-73
2023/05/19 00:35:40;;;;;;;4.97;1.87;;;10.60;95.00;;;;;;10512083;28;20225;-73
2023/05/19 00:40:41;;;;;;;6.70;2.17;;;10.60;95.50;;;;;;10517268;28;20236;-73
2023/05/19 00:45:41;;;;;;;5.90;2.30;;;10.50;96.10;;;;;;10511537;28;20234;-73
2023/05/19 00:50:43;;;;;;;7.73;2.20;;;10.40;96.70;;;;;;10517701;28;20222;-72
2023/05/19 00:55:45;;;;;;;5.87;2.70;;;10.30;97.30;;;;;;10515497;28;20215;-72
2023/05/19 01:00:45;;;;;;;5.77;2.60;;;10.30;97.90;;;;;;10508800;28;20657;-72
2023/05/19 01:05:52;;;;;;;5.23;2.40;;;10.20;98.20;;;;;;10510712;28;20211;-73
2023/05/19 01:10:52;;;;;;;8.93;2.70;;;10.30;98.50;;;;;;10502151;28;20218;-72
2023/05/19 01:16:20;;;;;;;7.47;3.10;;;10.30;98.70;;;;;;10498157;28;20215;-73
2023/05/19 01:22:05;;;;;;;10.13;3.27;;;10.30;99.00;;;;;;10509525;28;20223;-72
2023/05/19 01:27:06;;;;;;;9.97;4.67;;;10.20;99.30;;;;;;10522432;28;20259;-73
2023/05/19 01:32:08;;;;;;;10.93;5.20;;;10.20;99.70;;;;;;10501905;28;20624;-73
2023/05/19 01:37:10;;;;;;;19.50;7.67;;;10.30;99.90;;;;;;10517434;28;20352;-74
2023/05/19 01:42:13;;;;;;;17.20;8.63;;;10.20;99.90;;;;;;10494322;28;20816;-73
2023/05/19 01:47:14;;;;;;;12.90;7.90;;;10.10;99.90;;;;;;10523258;28;20207;-73
2023/05/19 01:52:14;;;;;;;18.23;9.43;;;10.10;99.90;;;;;;10515567;28;20221;-73
2023/05/19 01:57:27;;;;;;;17.23;9.93;;;10.10;99.90;;;;;;10510139;28;20569;-73
2023/05/19 02:02:49;;;;;;;16.53;9.30;;;10.00;99.90;;;;;;10515171;28;20230;-73
2023/05/19 02:08:14;;;;;;;16.20;8.67;;;9.90;99.90;;;;;;10509071;28;20227;-73
2023/05/19 02:13:17;;;;;;;13.00;6.63;;;9.90;99.90;;;;;;10509883;28;20219;-73
2023/05/19 02:18:19;;;;;;;15.27;6.50;;;9.90;99.90;;;;;;10512210;28;20226;-73
2023/05/19 02:23:19;;;;;;;12.37;5.90;;;9.90;99.90;;;;;;10516888;28;20210;-73
2023/05/19 02:28:20;;;;;;;17.47;5.93;;;9.80;99.90;;;;;;10512425;28;20221;-73
2023/05/19 02:33:23;;;;;;;12.00;5.13;;;9.80;99.90;;;;;;10507870;28;20258;-73
2023/05/19 02:38:24;;;;;;;15.87;4.37;;;9.70;99.90;;;;;;10512783;28;20617;-72
2023/05/19 02:43:24;;;;;;;10.53;3.43;;;9.70;99.90;;;;;;10507077;28;20222;-73
2023/05/19 02:48:25;;;;;;;6.43;3.33;;;9.70;99.90;;;;;;10513222;28;20643;-73
2023/05/19 02:53:25;;;;;;;7.03;3.00;;;9.60;99.90;;;;;;10507174;28;20325;-72
2023/05/19 02:58:26;;;;;;;9.33;3.60;;;9.60;99.90;;;;;;10514275;28;20211;-73
2023/05/19 03:03:27;;;;;;;8.03;3.10;;;9.60;99.90;;;;;;10515066;28;20218;-73
2023/05/19 03:08:28;;;;;;;9.03;3.23;;;9.50;99.90;;;;;;10513851;28;20237;-72
2023/05/19 03:13:28;;;;;;;9.30;2.90;;;9.40;99.90;;;;;;10488066;28;20221;-72
2023/05/19 03:18:29;;;;;;;7.00;2.90;;;9.40;99.90;;;;;;10514141;28;20214;-73
2023/05/19 03:23:30;;;;;;;5.33;2.53;;;9.30;99.90;;;;;;10496089;28;20207;-73
2023/05/19 03:28:30;;;;;;;8.30;3.03;;;9.30;99.90;;;;;;10521009;28;20215;-72
2023/05/19 03:33:31;;;;;;;11.80;4.27;;;9.40;99.90;;;;;;10514174;28;20250;-73
2023/05/19 03:38:31;;;;;;;16.30;4.50;;;9.30;99.90;;;;;;10519562;28;20219;-72
2023/05/19 03:43:32;;;;;;;11.27;3.40;;;9.40;99.90;;;;;;10487145;28;20223;-73
2023/05/19 03:48:32;;;;;;;7.27;2.33;;;9.30;99.90;;;;;;10512806;28;20248;-72
2023/05/19 03:53:33;;;;;;;5.60;2.23;;;9.40;99.90;;;;;;10511848;28;20626;-73
2023/05/19 03:58:35;;;;;;;8.20;2.30;;;9.40;99.90;;;;;;10512129;28;20684;-73
2023/05/19 04:03:36;;;;;;;5.03;2.03;;;9.40;99.90;;;;;;10512456;28;20306;-73
2023/05/19 04:08:36;;;;;;;8.10;2.47;;;9.50;99.90;;;;;;10503503;28;20223;-73
2023/05/19 04:13:37;;;;;;;8.70;2.70;;;9.50;99.90;;;;;;10485935;28;20243;-72
2023/05/19 04:18:37;;;;;;;12.13;2.63;;;9.60;99.90;;;;;;10517538;28;20901;-73
2023/05/19 04:23:38;;;;;;;9.63;3.10;;;9.70;99.90;;;;;;10520102;28;20645;-73
2023/05/19 04:28:41;;;;;;;11.37;3.53;;;9.90;99.90;;;;;;10518481;28;20309;-72
2023/05/19 04:33:41;;;;;;;8.60;2.80;;;10.00;99.90;;;;;;10511406;28;20893;-72
2023/05/19 04:38:42;;;;;;;5.50;1.93;;;10.00;99.90;;;;;;10517824;28;20226;-73
2023/05/19 04:43:43;;;;;;;5.43;2.17;;;10.20;99.90;;;;;;10511798;28;20583;-72
2023/05/19 04:48:44;;;;;;;6.70;2.50;;;10.10;99.90;;;;;;10517353;28;20222;-74
2023/05/19 04:53:44;;;;;;;5.97;2.43;;;10.20;99.90;;;;;;10513071;28;20229;-73
2023/05/19 04:58:45;;;;;;;9.57;2.87;;;10.30;99.90;;;;;;10518903;28;20709;-72
2023/05/19 05:03:45;;;;;;;8.60;2.63;;;10.40;99.90;;;;;;10518691;28;20215;-73
2023/05/19 05:08:46;;;;;;;7.57;2.40;;;10.60;99.90;;;;;;10524049;28;20226;-73
2023/05/19 05:13:47;;;;;;;4.80;2.43;;;10.80;99.90;;;;;;10511226;28;20215;-73
2023/05/19 05:18:48;;;;;;;5.97;2.63;;;11.00;99.90;;;;;;10509437;28;20234;-73
2023/05/19 05:23:50;;;;;;;8.67;3.00;;;11.30;99.90;;;;;;10525167;28;20211;-74
2023/05/19 05:28:50;;;;;;;4.63;2.03;;;11.60;99.90;;;;;;10497431;28;20220;-73
2023/05/19 05:33:51;;;;;;;8.53;2.53;;;11.90;99.90;;;;;;10496905;28;20704;-73
2023/05/19 05:38:51;;;;;;;7.63;2.50;;;12.70;99.90;;;;;;10499142;28;20230;-72
2023/05/19 05:43:52;;;;;;;7.83;3.17;;;14.80;99.90;;;;;;10495964;28;20219;-73
2023/05/19 05:48:53;;;;;;;7.57;2.60;;;16.00;96.10;;;;;;10516554;28;20232;-75
2023/05/19 05:53:54;;;;;;;12.40;2.87;;;16.60;93.60;;;;;;10510989;28;20309;-72
2023/05/19 05:58:55;;;;;;;7.00;3.40;;;16.60;92.20;;;;;;10523718;28;20254;-71
2023/05/19 06:03:56;;;;;;;7.90;2.40;;;16.40;91.70;;;;;;10512332;28;20295;-73
2023/05/19 06:08:56;;;;;;;7.67;2.50;;;16.20;91.10;;;;;;10492726;28;20218;-73
2023/05/19 06:13:57;;;;;;;4.47;1.90;;;16.00;91.50;;;;;;10512568;28;20650;-73
2023/05/19 06:19:01;;;;;;;10.17;2.13;;;16.00;91.40;;;;;;10515184;28;20305;-73
2023/05/19 06:24:01;;;;;;;7.93;2.13;;;16.20;91.10;;;;;;10509803;28;20282;-72
2023/05/19 06:29:02;;;;;;;5.97;1.80;;;16.50;90.00;;;;;;10497616;28;20222;-73
2023/05/19 06:34:03;;;;;;;7.97;2.60;;;16.80;88.80;;;;;;10510751;28;20234;-74
2023/05/19 06:39:03;;;;;;;6.87;2.53;;;17.40;86.70;;;;;;10509202;28;20237;-74
2023/05/19 06:44:06;;;;;;;4.80;2.30;;;18.30;81.60;;;;;;10510597;28;20215;-73
2023/05/19 06:49:07;;;;;;;8.40;2.20;;;18.60;79.90;;;;;;10514660;28;20219;-73
2023/05/19 06:54:09;;;;;;;7.10;2.10;;;18.80;78.40;;;;;;10505634;28;20313;-72
2023/05/19 06:59:10;;;;;;;5.07;2.27;;;18.70;76.00;;;;;;10509620;28;20901;-74
2023/05/19 07:04:10;;;;;;;5.10;1.90;;;18.40;76.80;;;;;;10514906;28;20250;-73
2023/05/19 07:09:11;;;;;;;5.60;1.90;;;18.40;74.10;;;;;;10490144;28;20223;-73
2023/05/19 07:14:12;;;;;;;5.07;2.30;;;18.20;75.50;;;;;;10491773;28;20800;-74
2023/05/19 07:19:18;;;;;;;6.90;2.00;;;18.90;74.80;;;;;;10490139;28;20219;-74
2023/05/19 07:24:20;;;;;;;7.77;2.30;;;19.80;70.30;;;;;;10503017;28;20729;-74
2023/05/19 07:29:20;;;;;;;9.97;2.30;;;19.70;69.40;;;;;;10510756;28;20307;-71
2023/05/19 07:34:21;;;;;;;6.07;2.23;;;20.90;66.10;;;;;;10526717;28;20245;-73
2023/05/19 07:39:24;;;;;;;4.67;2.20;;;21.80;61.30;;;;;;10512522;28;20233;-74
2023/05/19 07:44:30;;;;;;;5.37;2.23;;;22.60;58.50;;;;;;10505892;28;20222;-73
2023/05/19 07:49:30;;;;;;;5.83;2.43;;;23.90;55.40;;;;;;10511213;28;20249;-73
2023/05/19 07:54:31;;;;;;;6.20;2.23;;;24.00;54.40;;;;;;10527728;28;20222;-73
2023/05/19 07:59:31;;;;;;;6.87;2.30;;;24.30;52.70;;;;;;10501702;28;20226;-73
2023/05/19 08:04:32;;;;;;;6.80;2.37;;;24.20;52.50;;;;;;10512835;28;20219;-72
2023/05/19 08:09:33;;;;;;;6.47;2.10;;;24.80;51.90;;;;;;10527831;28;20222;-74
2023/05/19 08:14:33;;;;;;;6.37;2.23;;;25.30;49.80;;;;;;10494316;28;20288;-73
2023/05/19 08:19:34;;;;;;;3.73;2.07;;;26.10;48.20;;;;;;10501589;28;20250;-73
2023/05/19 08:24:35;;;;;;;5.97;2.80;;;26.20;48.10;;;;;;10527651;28;20255;-73
2023/05/19 08:29:37;;;;;;;8.30;2.53;;;26.90;47.00;;;;;;10510884;28;20235;-73
2023/05/19 08:34:37;;;;;;;9.23;2.50;;;26.80;45.90;;;;;;10501285;28;20237;-74
2023/05/19 08:39:38;;;;;;;4.53;2.50;;;26.10;46.00;;;;;;10510723;28;20263;-74
2023/05/19 08:44:40;;;;;;;7.17;2.47;;;27.00;45.00;;;;;;10518216;28;20776;-74
2023/05/19 08:49:44;;;;;;;6.27;2.53;;;26.90;45.20;;;;;;10510640;28;20227;-73
2023/05/19 08:55:03;;;;;;;10.23;2.27;;;27.60;44.10;;;;;;10496796;28;20215;-74
2023/05/19 09:00:13;;;;;;;3.70;1.93;;;27.40;44.20;;;;;;10513923;28;20231;-73
2023/05/19 09:05:16;;;;;;;8.97;2.40;;;26.90;43.40;;;;;;10518298;28;20541;-73
2023/05/19 09:10:16;;;;;;;4.30;2.27;;;26.20;45.70;;;;;;10509555;28;20630;-73
2023/05/19 09:15:18;;;;;;;9.63;2.77;;;26.50;44.60;;;;;;10511468;28;20180;-73
2023/05/19 09:20:18;;;;;;;3.47;2.00;;;26.80;43.60;;;;;;10515059;28;20204;-74
2023/05/19 09:25:22;;;;;;;4.23;1.90;;;27.00;42.00;;;;;;10516202;28;20185;-73
2023/05/19 09:30:23;;;;;;;5.63;2.40;;;28.40;40.70;;;;;;10497627;28;20344;-74
2023/05/19 09:35:24;;;;;;;4.80;2.30;;;27.90;41.60;;;;;;10527265;28;20273;-74
2023/05/19 09:40:27;;;;;;;4.00;2.30;;;27.80;40.50;;;;;;10518303;28;20690;-73
2023/05/19 09:45:28;;;;;;;8.10;2.20;;;27.10;41.80;;;;;;10504669;28;20222;-73
2023/05/19 09:50:29;;;;;;;5.60;2.60;;;27.20;41.40;;;;;;10509907;28;20584;-73
2023/05/19 09:55:31;;;;;;;8.30;2.40;;;27.90;40.90;;;;;;10520687;28;20213;-74
2023/05/19 10:00:33;;;;;;;5.70;2.33;;;28.90;39.90;;;;;;10505170;28;20227;-74
2023/05/19 10:05:35;;;;;;;5.83;2.10;;;27.80;40.30;;;;;;10496650;28;20754;-73
2023/05/19 10:10:39;;;;;;;6.70;2.40;;;26.50;42.90;;;;;;10514975;28;20302;-73
2023/05/19 10:15:41;;;;;;;4.90;2.57;;;26.30;42.80;;;;;;10495761;28;20219;-73
2023/05/19 10:20:43;;;;;;;6.63;2.00;;;26.20;42.30;;;;;;10513989;28;20230;-74
2023/05/19 10:25:44;;;;;;;5.57;2.20;;;27.00;42.00;;;;;;10489327;28;20250;-74
2023/05/19 10:30:48;;;;;;;3.37;2.10;;;26.40;41.90;;;;;;10514456;28;20287;-72
2023/05/19 10:36:20;;;;;;;7.97;2.10;;;25.90;43.40;;;;;;10511302;28;20310;-73
2023/05/19 10:41:35;;;;;;;4.30;2.03;;;24.90;45.10;;;;;;10512721;28;20640;-74
2023/05/19 10:46:38;;;;;;;5.03;1.90;;;24.20;47.20;;;;;;10505894;28;20229;-74
2023/05/19 10:51:39;;;;;;;9.37;2.10;;;23.80;47.40;;;;;;10505807;28;20587;-74
2023/05/19 10:56:44;;;;;;;6.57;2.10;;;24.70;46.60;;;;;;10513435;28;20218;-73
2023/05/19 11:01:45;;;;;;;5.87;2.10;;;26.20;45.10;;;;;;10513657;28;20773;-73
2023/05/19 11:06:50;;;;;;;4.97;2.10;;;28.00;42.40;;;;;;10500495;28;20226;-73
2023/05/19 11:11:52;;;;;;;5.13;2.23;;;29.30;41.50;;;;;;10506841;28;20223;-74
2023/05/19 11:16:59;;;;;;;5.00;2.20;;;29.20;40.00;;;;;;10510449;28;20223;-73
2023/05/19 11:22:12;;;;;;;7.23;2.30;;;28.80;41.10;;;;;;10487259;28;20231;-73
2023/05/19 11:27:27;;;;;;;6.07;2.30;;;29.10;39.20;;;;;;10519623;28;20230;-73
2023/05/19 11:32:30;;;;;;;4.37;2.10;;;28.20;40.20;;;;;;10517618;28;20271;-73
2023/05/19 11:37:32;;;;;;;6.07;2.03;;;28.30;40.60;;;;;;10529389;28;20276;-72
2023/05/19 11:42:33;;;;;;;5.83;2.00;;;27.80;42.70;;;;;;10525118;28;20275;-73
2023/05/19 11:47:34;;;;;;;4.47;1.90;;;26.30;43.80;;;;;;10520961;28;20219;-73
2023/05/19 11:52:34;;;;;;;4.90;2.03;;;25.00;46.70;;;;;;10520700;28;20214;-72
2023/05/19 11:57:35;;;;;;;5.00;2.30;;;24.30;48.80;;;;;;10494834;28;20755;-72
2023/05/19 12:02:36;;;;;;;7.53;2.10;;;24.50;47.90;;;;;;10509228;28;20319;-73
2023/05/19 12:07:38;;;;;;;4.07;1.97;;;23.50;48.70;;;;;;10520986;28;20309;-74
2023/05/19 12:12:39;;;;;;;4.37;1.83;;;22.80;50.80;;;;;;10495006;28;20230;-74
2023/05/19 12:17:40;;;;;;;4.77;1.83;;;22.70;51.30;;;;;;10494100;28;20308;-73
2023/05/19 12:22:40;;;;;;;4.30;2.07;;;22.80;51.20;;;;;;10519414;28;20269;-74
2023/05/19 12:27:42;;;;;;;4.27;1.93;;;23.20;50.30;;;;;;10512407;28;20219;-74
2023/05/19 12:32:44;;;;;;;3.43;1.90;;;23.50;49.60;;;;;;10520232;28;20237;-74
2023/05/19 12:37:47;;;;;;;3.93;1.47;;;23.50;50.20;;;;;;10518195;28;20484;-74
2023/05/19 12:42:52;;;;;;;7.70;1.87;;;22.70;50.80;;;;;;10494367;28;20229;-74
2023/05/19 12:47:52;;;;;;;3.93;1.50;;;22.70;51.60;;;;;;10499800;28;20226;-74
2023/05/19 12:52:53;;;;;;;3.47;1.63;;;22.20;53.20;;;;;;10495937;28;20226;-75
2023/05/19 12:57:55;;;;;;;3.13;1.50;;;21.70;53.70;;;;;;10516346;28;20222;-74
2023/05/19 13:03:04;;;;;;;3.53;1.50;;;21.90;53.80;;;;;;10503528;28;20816;-73
2023/05/19 13:08:10;;;;;;;4.33;1.50;;;21.70;54.40;;;;;;10514692;28;20215;-74
2023/05/19 13:13:11;;;;;;;2.37;1.43;;;21.60;54.90;;;;;;10515709;28;20246;-73
2023/05/19 13:18:15;;;;;;;3.57;1.60;;;21.60;55.50;;;;;;10497054;28;20309;-74
2023/05/19 13:23:16;;;;;;;5.13;1.63;;;22.20;54.80;;;;;;10509962;28;20811;-74
2023/05/19 13:28:17;;;;;;;3.27;1.50;;;22.40;54.30;;;;;;10518162;28;20236;-73
2023/05/19 13:33:17;;;;;;;3.27;1.80;;;22.30;54.40;;;;;;10496459;28;20222;-73
2023/05/19 13:38:21;;;;;;;2.73;1.50;;;22.20;55.10;;;;;;10515683;28;20646;-74
2023/05/19 13:43:21;;;;;;;3.70;1.60;;;21.90;55.30;;;;;;10499293;28;20227;-73
2023/05/19 13:48:25;;;;;;;6.80;1.80;;;21.90;54.90;;;;;;10488145;28;20305;-74
2023/05/19 13:53:26;;;;;;;4.33;1.70;;;22.10;55.90;;;;;;10519606;28;20215;-74
2023/05/19 13:58:28;;;;;;;5.73;1.47;;;22.10;55.50;;;;;;10497255;28;20235;-73
2023/05/19 14:03:28;;;;;;;7.20;1.60;;;22.00;55.10;;;;;;10508727;28;20230;-74
2023/05/19 14:08:32;;;;;;;3.40;1.67;;;22.00;55.50;;;;;;10508950;28;20292;-73
2023/05/19 14:13:33;;;;;;;3.00;1.70;;;22.00;56.40;;;;;;10520628;28;20698;-73
2023/05/19 14:18:33;;;;;;;2.30;1.47;;;21.80;55.70;;;;;;10516206;28;20229;-73
2023/05/19 14:23:34;;;;;;;3.07;1.40;;;21.70;56.50;;;;;;10490431;28;20238;-73
2023/05/19 14:28:35;;;;;;;2.17;1.50;;;21.70;55.90;;;;;;10503801;28;20695;-73
2023/05/19 14:33:35;;;;;;;4.00;1.73;;;21.80;56.30;;;;;;10489933;28;20231;-72
2023/05/19 14:38:36;;;;;;;3.77;1.47;;;22.00;56.50;;;;;;10489359;28;20235;-72
2023/05/19 14:43:36;;;;;;;3.33;1.47;;;22.00;55.40;;;;;;10506889;28;20709;-73
2023/05/19 14:48:37;;;;;;;4.63;1.50;;;22.00;56.00;;;;;;10514449;28;20252;-73
2023/05/19 14:53:37;;;;;;;7.47;1.93;;;21.80;56.30;;;;;;10489254;28;20220;-73
2023/05/19 14:58:41;;;;;;;6.30;1.67;;;21.80;56.90;;;;;;10487968;28;20242;-73
2023/05/19 15:03:42;;;;;;;4.90;1.70;;;21.60;56.20;;;;;;10516349;28;20215;-72
2023/05/19 15:08:42;;;;;;;4.97;1.70;;;21.50;57.50;;;;;;10506962;28;20219;-73
2023/05/19 15:13:43;;;;;;;4.07;1.80;;;21.70;56.70;;;;;;10514121;28;20206;-73
2023/05/19 15:18:43;;;;;;;3.77;1.63;;;21.90;55.90;;;;;;10514989;28;20207;-74
2023/05/19 15:23:44;;;;;;;2.70;1.80;;;22.10;55.80;;;;;;10512388;28;20207;-74
2023/05/19 15:28:45;;;;;;;3.97;1.80;;;22.20;55.20;;;;;;10516226;28;20754;-73
2023/05/19 15:33:45;;;;;;;3.77;1.87;;;21.60;55.00;;;;;;10512736;28;20215;-73
2023/05/19 15:38:47;;;;;;;4.20;1.87;;;21.50;55.40;;;;;;10507241;28;20263;-73
2023/05/19 15:43:48;;;;;;;3.43;1.80;;;21.40;55.60;;;;;;10494483;28;20214;-74
2023/05/19 15:48:48;;;;;;;3.40;1.87;;;21.60;55.80;;;;;;10509060;28;20561;-73
2023/05/19 15:53:49;;;;;;;2.83;1.70;;;21.50;55.40;;;;;;10505711;28;20214;-73
2023/05/19 15:58:50;;;;;;;2.37;1.87;;;21.60;55.80;;;;;;10511341;28;20219;-73
2023/05/19 16:03:50;;;;;;;3.90;1.97;;;21.30;55.40;;;;;;10505283;28;20675;-74
2023/05/19 16:08:51;;;;;;;7.00;1.97;;;21.10;55.20;;;;;;10513035;28;20325;-73
2023/05/19 16:13:51;;;;;;;3.33;1.80;;;20.90;55.70;;;;;;10511831;28;20222;-73
2023/05/19 16:18:52;;;;;;;2.57;1.83;;;21.00;55.60;;;;;;10523195;28;20210;-73
2023/05/19 16:23:53;;;;;;;3.37;1.90;;;20.90;56.70;;;;;;10512302;28;20233;-73
2023/05/19 16:28:53;;;;;;;4.00;2.03;;;20.80;55.90;;;;;;10502208;28;20293;-73
2023/05/19 16:33:54;;;;;;;4.80;2.23;;;21.10;56.50;;;;;;10493587;28;20223;-73
2023/05/19 16:38:57;;;;;;;3.17;1.77;;;21.20;56.10;;;;;;10517425;28;20469;-73
2023/05/19 16:43:58;;;;;;;4.50;2.00;;;20.90;56.40;;;;;;10514365;28;20226;-73
2023/05/19 16:48:59;;;;;;;2.53;1.67;;;20.70;56.80;;;;;;10519722;28;20222;-74
2023/05/19 16:54:02;;;;;;;4.93;2.20;;;20.60;56.50;;;;;;10498391;28;20288;-74
2023/05/19 16:59:03;;;;;;;5.17;2.50;;;20.20;57.30;;;;;;10515531;28;20218;-73
2023/05/19 17:04:04;;;;;;;6.20;2.10;;;20.30;57.70;;;;;;10519886;28;20268;-72
2023/05/19 17:09:04;;;;;;;4.27;2.37;;;20.30;57.90;;;;;;10522293;28;20652;-73
2023/05/19 17:14:07;;;;;;;5.20;2.03;;;20.20;58.20;;;;;;10497156;28;20269;-73
2023/05/19 17:19:12;;;;;;;6.83;2.40;;;20.10;58.10;;;;;;10524255;28;20223;-73
2023/05/19 17:24:12;;;;;;;3.60;1.60;;;19.90;58.50;;;;;;10526683;28;20214;-73
2023/05/19 17:29:13;;;;;;;6.07;2.10;;;19.70;58.90;;;;;;10525531;28;20238;-73
2023/05/19 17:34:14;;;;;;;3.37;1.97;;;19.60;59.00;;;;;;10514837;28;20527;-73
2023/05/19 17:39:15;;;;;;;5.80;2.10;;;19.50;59.50;;;;;;10515344;28;20222;-73
2023/05/19 17:44:15;;;;;;;5.73;1.87;;;19.40;59.30;;;;;;10487333;28;20594;-73
2023/05/19 17:49:16;;;;;;;5.57;1.93;;;19.40;60.10;;;;;;10515060;28;20288;-73
2023/05/19 17:54:17;;;;;;;5.13;2.13;;;19.30;60.10;;;;;;10499264;28;20218;-73
2023/05/19 17:59:18;;;;;;;5.13;1.73;;;19.20;59.90;;;;;;10496655;28;20246;-73
2023/05/19 18:04:18;;;;;;;3.17;1.70;;;19.10;59.80;;;;;;10491971;28;20219;-73
2023/05/19 18:09:22;;;;;;;4.43;2.03;;;19.10;60.30;;;;;;10516627;28;20218;-73
2023/05/19 18:14:22;;;;;;;4.37;1.97;;;19.10;60.60;;;;;;10518478;28;20228;-74
2023/05/19 18:19:23;;;;;;;2.57;1.90;;;19.10;61.10;;;;;;10496388;28;20218;-72
2023/05/19 18:24:23;;;;;;;5.40;1.90;;;19.00;61.40;;;;;;10491504;28;20215;-74
2023/05/19 18:29:24;;;;;;;4.30;1.90;;;19.00;61.60;;;;;;10520530;28;20725;-74
2023/05/19 18:34:26;;;;;;;4.50;1.90;;;18.90;61.50;;;;;;10514179;28;20214;-72
2023/05/19 18:39:26;;;;;;;2.67;2.07;;;18.90;62.30;;;;;;10507618;28;20230;-74
2023/05/19 18:44:28;;;;;;;1.83;1.73;;;18.80;62.00;;;;;;10514539;28;20630;-73
2023/05/19 18:49:28;;;;;;;4.43;1.43;;;18.70;62.00;;;;;;10490191;28;20222;-73
2023/05/19 18:54:31;;;;;;;3.50;2.00;;;18.50;61.80;;;;;;10506535;28;20252;-74
2023/05/19 18:59:31;;;;;;;2.40;1.70;;;18.40;63.60;;;;;;10514156;28;20229;-74
2023/05/19 19:04:32;;;;;;;3.90;1.50;;;18.30;63.10;;;;;;10489643;28;20214;-74
2023/05/19 19:09:33;;;;;;;1.60;1.47;;;18.20;62.40;;;;;;10514415;28;20221;-74
2023/05/19 19:14:33;;;;;;;2.87;1.90;;;18.10;62.70;;;;;;10488828;28;20214;-72
2023/05/19 19:19:34;;;;;;;3.37;1.63;;;18.00;62.90;;;;;;10515343;28;20237;-73
2023/05/19 19:24:34;;;;;;;6.80;1.80;;;18.00;63.50;;;;;;10496346;28;20210;-74
2023/05/19 19:29:35;;;;;;;1.70;1.60;;;17.90;63.30;;;;;;10512520;28;20246;-74
2023/05/19 19:34:36;;;;;;;4.20;1.67;;;17.80;63.10;;;;;;10521203;28;20794;-73
2023/05/19 19:39:38;;;;;;;7.80;2.40;;;17.60;63.20;;;;;;10504175;28;20230;-73
2023/05/19 19:44:38;;;;;;;3.03;1.87;;;17.50;63.90;;;;;;10513417;28;20221;-73
2023/05/19 19:49:39;;;;;;;3.17;1.60;;;17.50;63.90;;;;;;10520558;28;20588;-73
2023/05/19 19:54:40;;;;;;;3.73;1.60;;;17.40;64.40;;;;;;10520713;28;20213;-73
2023/05/19 19:59:40;;;;;;;4.00;1.70;;;17.30;64.20;;;;;;10512344;28;20272;-74
2023/05/19 20:04:41;;;;;;;3.77;1.60;;;17.20;64.40;;;;;;10486737;28;20218;-73
2023/05/19 20:09:41;;;;;;;4.10;1.70;;;17.20;64.90;;;;;;10523606;28;20280;-73
2023/05/19 20:14:42;;;;;;;2.70;1.57;;;17.10;65.20;;;;;;10521424;28;20295;-73
2023/05/19 20:19:43;;;;;;;4.40;1.80;;;17.00;65.80;;;;;;10519922;28;20260;-73
2023/05/19 20:24:43;;;;;;;4.37;1.60;;;16.90;66.10;;;;;;10521639;28;20207;-73
2023/05/19 20:29:45;;;;;;;2.30;1.80;;;16.80;66.50;;;;;;10519551;28;20226;-73
2023/05/19 20:34:46;;;;;;;3.20;1.90;;;16.70;67.00;;;;;;10513488;28;20214;-73
2023/05/19 20:39:46;;;;;;;4.07;1.83;;;16.70;67.60;;;;;;10496170;28;20234;-73
2023/05/19 20:44:47;;;;;;;3.60;1.90;;;16.60;68.30;;;;;;10519035;28;20313;-73
2023/05/19 20:49:48;;;;;;;4.80;1.70;;;16.50;68.90;;;;;;10494942;28;20221;-74
2023/05/19 20:54:48;;;;;;;1.87;1.70;;;16.40;69.30;;;;;;10513704;28;20225;-73
2023/05/19 20:59:49;;;;;;;2.50;1.90;;;16.30;69.90;;;;;;10517767;28;20540;-73
2023/05/19 21:04:50;;;;;;;3.53;1.63;;;16.20;70.70;;;;;;10514096;28;20271;-73
2023/05/19 21:09:52;;;;;;;3.80;1.70;;;16.10;71.20;;;;;;10494102;28;20321;-73
2023/05/19 21:14:53;;;;;;;4.67;1.83;;;16.10;71.80;;;;;;10517976;28;20218;-73
2023/05/19 21:19:56;;;;;;;2.33;1.87;;;16.00;72.30;;;;;;10520355;28;20602;-72
2023/05/19 21:24:57;;;;;;;2.77;2.10;;;15.90;73.00;;;;;;10500923;28;20587;-73
2023/05/19 21:29:57;;;;;;;5.03;2.20;;;15.80;73.50;;;;;;10506239;28;20336;-72
2023/05/19 21:34:58;;;;;;;2.50;2.07;;;15.80;74.30;;;;;;10498174;28;20249;-74
2023/05/19 21:39:59;;;;;;;4.87;1.90;;;15.60;74.70;;;;;;10526372;28;20247;-74
2023/05/19 21:45:03;;;;;;;4.77;2.13;;;15.60;75.30;;;;;;10491992;28;20302;-73
2023/05/19 21:50:04;;;;;;;5.57;2.30;;;15.50;76.00;;;;;;10496429;28;20253;-73
2023/05/19 21:55:06;;;;;;;2.97;1.90;;;15.40;76.50;;;;;;10514552;28;20214;-73
2023/05/19 22:00:11;;;;;;;2.30;1.73;;;15.30;77.20;;;;;;10504006;28;20685;-73
2023/05/19 22:05:12;;;;;;;4.07;2.23;;;15.30;78.00;;;;;;10495888;28;20167;-73
2023/05/19 22:10:12;;;;;;;2.90;2.00;;;15.10;78.40;;;;;;10508993;28;20545;-73
2023/05/19 22:15:14;;;;;;;7.10;2.37;;;15.10;79.00;;;;;;10512239;28;20182;-73
2023/05/19 22:20:15;;;;;;;5.33;1.90;;;15.00;79.60;;;;;;10528379;28;20272;-73
2023/05/19 22:25:15;;;;;;;4.60;2.20;;;15.00;80.10;;;;;;10513988;28;20256;-74
2023/05/19 22:30:16;;;;;;;5.30;1.93;;;14.90;80.80;;;;;;10511012;28;20195;-75
2023/05/19 22:35:17;;;;;;;5.87;2.43;;;14.80;82.20;;;;;;10513883;28;20183;-73
2023/05/19 22:40:21;;;;;;;2.63;2.23;;;14.70;81.70;;;;;;10516969;28;20259;-74
2023/05/19 22:45:22;;;;;;;4.57;2.10;;;14.70;82.40;;;;;;10492177;28;20184;-73
2023/05/19 22:50:22;;;;;;;3.80;2.50;;;14.60;83.20;;;;;;10507184;28;20183;-73
2023/05/19 22:55:23;;;;;;;4.37;2.40;;;14.50;83.80;;;;;;10495777;28;20273;-73
2023/05/19 23:00:23;;;;;;;5.83;2.47;;;14.40;84.40;;;;;;10491307;28;20214;-73
2023/05/19 23:05:24;;;;;;;2.50;2.30;;;14.30;85.20;;;;;;10513562;28;20273;-73
2023/05/19 23:10:25;;;;;;;6.33;2.57;;;14.20;85.70;;;;;;10507966;28;20227;-72
2023/05/19 23:15:25;;;;;;;3.93;2.30;;;14.10;86.20;;;;;;10521381;28;20197;-73
2023/05/19 23:20:26;;;;;;;4.47;2.10;;;14.10;86.90;;;;;;10496705;28;20238;-72
2023/05/19 23:25:27;;;;;;;2.77;2.43;;;14.00;87.60;;;;;;10521122;28;20182;-73
2023/05/19 23:30:29;;;;;;;3.77;2.13;;;14.00;88.30;;;;;;10516121;28;20283;-74
2023/05/19 23:35:29;;;;;;;4.13;2.10;;;13.90;89.00;;;;;;10496940;28;20181;-73
2023/05/19 23:40:30;;;;;;;3.87;2.30;;;13.80;89.60;;;;;;10496860;28;20219;-74
2023/05/19 23:45:31;;;;;;;4.17;2.40;;;13.80;90.10;;;;;;10497238;28;20246;-72
2023/05/19 23:50:33;;;;;;;7.33;2.37;;;13.70;90.30;;;;;;10514413;28;20682;-73
2023/05/19 23:55:33;;;;;;;3.07;2.03;;;13.70;90.60;;;;;;10521943;28;20218;-73
